createdAt,value
2022-11-23T00:00:49.452Z,62.07
2022-11-23T00:03:17.443Z,62.18
2022-11-23T00:05:46.821Z,62.10
2022-11-23T00:08:14.827Z,62.23
2022-11-23T00:10:43.003Z,62.47
2022-11-23T00:13:11.060Z,62.66
2022-11-23T00:15:41.793Z,62.79
2022-11-23T00:18:09.761Z,63.60
2022-11-23T00:20:40.390Z,63.03
2022-11-23T00:23:10.300Z,62.74
2022-11-23T00:25:38.405Z,62.84
2022-11-23T00:28:06.440Z,63.41
2022-11-23T00:30:34.457Z,63.43
2022-11-23T00:33:02.611Z,63.21
2022-11-23T00:35:32.606Z,63.22
2022-11-23T00:38:02.589Z,63.26
2022-11-23T00:40:31.976Z,63.18
2022-11-23T00:42:59.975Z,63.44
2022-11-23T00:45:30.541Z,63.44
2022-11-23T00:47:58.525Z,63.44
2022-11-23T00:50:26.581Z,63.34
2022-11-23T00:52:54.654Z,63.36
2022-11-23T00:55:22.695Z,63.28
2022-11-23T00:57:52.094Z,63.43
2022-11-23T01:00:20.256Z,63.28
2022-11-23T01:02:48.297Z,63.87
2022-11-23T01:05:16.393Z,63.81
2022-11-23T01:07:44.463Z,64.09
2022-11-23T01:10:12.477Z,64.24
2022-11-23T01:12:41.680Z,63.84
2022-11-23T01:15:11.718Z,63.92
2022-11-23T01:17:39.762Z,64.08
2022-11-23T01:20:10.841Z,63.89
2022-11-23T01:22:41.295Z,63.95
2022-11-23T01:25:10.724Z,64.01
2022-11-23T01:27:39.897Z,64.15
2022-11-23T01:30:09.396Z,64.06
2022-11-23T01:32:38.785Z,63.86
2022-11-23T01:35:07.671Z,63.82
2022-11-23T01:37:35.640Z,63.96
2022-11-23T01:40:03.649Z,64.18
2022-11-23T01:42:45.334Z,63.70
2022-11-23T01:45:45.268Z,63.85
2022-11-23T01:48:19.065Z,63.63
2022-11-23T01:50:51.067Z,63.56
2022-11-23T01:53:21.748Z,63.96
2022-11-23T01:55:51.887Z,63.95
2022-11-23T01:58:23.749Z,63.73
2022-11-23T02:00:52.220Z,63.79
2022-11-23T02:03:21.661Z,63.81
2022-11-23T02:05:53.239Z,63.89
2022-11-23T02:08:22.529Z,64.21
2022-11-23T02:10:50.620Z,64.26
2022-11-23T02:13:19.309Z,64.40
2022-11-23T02:15:47.389Z,64.29
2022-11-23T02:18:24.220Z,64.05
2022-11-23T02:20:53.176Z,64.01
2022-11-23T02:23:32.572Z,64.02
2022-11-23T02:26:05.112Z,64.43
2022-11-23T02:28:38.819Z,65.14
2022-11-23T02:31:08.048Z,64.92
2022-11-23T02:33:38.951Z,64.73
2022-11-23T02:36:32.206Z,64.54
2022-11-23T02:39:12.960Z,64.34
2022-11-23T02:41:44.265Z,65.50
2022-11-23T02:44:24.572Z,64.69
2022-11-23T02:46:53.705Z,64.50
2022-11-23T02:49:21.743Z,64.22
2022-11-23T02:51:52.186Z,64.20
2022-11-23T02:54:20.244Z,64.34
2022-11-23T02:56:49.631Z,64.07
2022-11-23T02:59:19.160Z,64.23
2022-11-23T03:01:47.409Z,64.43
2022-11-23T03:04:15.640Z,64.68
2022-11-23T03:06:44.052Z,64.55
2022-11-23T03:09:12.219Z,64.63
2022-11-23T03:11:40.292Z,64.74
2022-11-23T03:14:10.131Z,64.74
2022-11-23T03:16:47.513Z,65.62
2022-11-23T03:19:18.127Z,65.35
2022-11-23T03:21:46.232Z,65.37
2022-11-23T03:24:14.220Z,65.28
2022-11-23T03:26:42.324Z,65.15
2022-11-23T03:29:13.112Z,64.90
2022-11-23T03:31:41.885Z,64.89
2022-11-23T03:34:13.542Z,65.41
2022-11-23T03:36:41.934Z,65.60
2022-11-23T03:39:10.331Z,65.50
2022-11-23T03:41:57.330Z,66.00
2022-11-23T03:44:34.000Z,65.48
2022-11-23T03:47:02.037Z,65.96
2022-11-23T03:49:30.778Z,65.50
2022-11-23T03:51:59.100Z,65.66
2022-11-23T03:54:28.728Z,65.58
2022-11-23T03:56:56.690Z,65.61
2022-11-23T03:59:24.788Z,65.72
2022-11-23T04:01:54.905Z,65.62
2022-11-23T04:04:27.403Z,65.24
2022-11-23T04:07:04.295Z,65.25
2022-11-23T04:09:35.637Z,65.02
2022-11-23T04:12:06.805Z,64.80
2022-11-23T04:14:37.661Z,65.02
2022-11-23T04:17:07.115Z,64.85
2022-11-23T04:19:35.314Z,64.80
2022-11-23T04:22:03.685Z,65.16
2022-11-23T04:24:37.401Z,65.14
2022-11-23T04:27:07.652Z,65.20
2022-11-23T04:29:35.683Z,64.95
2022-11-23T04:32:03.766Z,65.00
2022-11-23T04:34:33.278Z,65.56
2022-11-23T04:37:07.850Z,65.55
2022-11-23T04:39:40.353Z,65.21
2022-11-23T04:42:20.706Z,65.04
2022-11-23T04:44:58.550Z,65.10
2022-11-23T04:47:26.883Z,65.20
2022-11-23T04:49:58.269Z,65.11
2022-11-23T04:52:26.333Z,64.84
2022-11-23T04:54:54.369Z,64.70
2022-11-23T04:57:23.778Z,64.85
2022-11-23T04:59:53.519Z,64.93
2022-11-23T05:02:22.931Z,64.99
2022-11-23T05:05:11.621Z,64.83
2022-11-23T05:07:39.975Z,64.72
2022-11-23T05:10:09.214Z,64.92
2022-11-23T05:12:38.076Z,64.24
2022-11-23T05:15:07.153Z,64.14
2022-11-23T05:17:37.896Z,64.19
2022-11-23T05:20:13.020Z,64.10
2022-11-23T05:22:46.142Z,64.43
2022-11-23T05:25:17.360Z,64.73
2022-11-23T05:27:49.937Z,64.47
2022-11-23T05:30:18.833Z,64.51
2022-11-23T05:32:47.821Z,64.69
2022-11-23T05:35:18.157Z,64.64
2022-11-23T05:37:46.215Z,64.85
2022-11-23T05:40:15.204Z,64.73
2022-11-23T05:42:44.133Z,64.74
2022-11-23T05:45:20.688Z,64.79
2022-11-23T05:47:53.180Z,65.13
2022-11-23T05:50:30.862Z,65.27
2022-11-23T05:53:17.155Z,64.99
2022-11-23T05:55:48.108Z,65.24
2022-11-23T05:58:16.265Z,64.87
2022-11-23T06:00:44.414Z,64.57
2022-11-23T06:03:12.637Z,64.76
2022-11-23T06:05:43.016Z,64.56
2022-11-23T06:08:11.000Z,64.90
2022-11-23T06:10:40.713Z,65.01
2022-11-23T06:13:09.009Z,65.22
2022-11-23T06:15:37.100Z,64.89
2022-11-23T06:18:05.643Z,65.12
2022-11-23T06:20:43.053Z,65.12
2022-11-23T06:23:11.091Z,65.32
2022-11-23T06:25:39.578Z,65.41
2022-11-23T06:28:27.199Z,65.21
2022-11-23T06:30:57.373Z,65.22
2022-11-23T06:33:25.725Z,64.91
2022-11-23T06:35:57.532Z,64.67
2022-11-23T06:38:29.774Z,64.61
2022-11-23T06:41:03.657Z,64.83
2022-11-23T06:43:32.602Z,64.94
2022-11-23T06:46:04.732Z,64.75
2022-11-23T06:48:34.355Z,64.81
2022-11-23T06:51:04.516Z,64.83
2022-11-23T06:53:32.991Z,64.95
2022-11-23T06:56:05.684Z,65.40
2022-11-23T06:58:34.254Z,64.88
2022-11-23T07:01:07.302Z,64.72
2022-11-23T07:03:42.085Z,64.82
2022-11-23T07:06:22.394Z,64.59
2022-11-23T07:08:55.756Z,65.12
2022-11-23T07:11:37.838Z,64.66
2022-11-23T07:14:05.916Z,64.56
2022-11-23T07:16:34.750Z,65.06
2022-11-23T07:19:03.153Z,64.79
2022-11-23T07:21:32.537Z,64.47
2022-11-23T07:24:00.624Z,64.49
2022-11-23T07:26:28.607Z,64.53
2022-11-23T07:28:56.658Z,64.64
2022-11-23T07:31:24.759Z,64.47
2022-11-23T07:33:53.431Z,64.39
2022-11-23T07:36:26.048Z,64.48
2022-11-23T07:38:55.500Z,64.44
2022-11-23T07:41:25.846Z,64.36
2022-11-23T07:44:06.190Z,64.05
2022-11-23T07:46:34.497Z,64.29
2022-11-23T07:49:02.684Z,64.14
2022-11-23T07:51:31.040Z,64.17
2022-11-23T07:54:00.481Z,64.12
2022-11-23T07:56:28.500Z,63.98
2022-11-23T07:58:56.506Z,63.63
2022-11-23T08:01:24.511Z,63.89
2022-11-23T08:03:52.520Z,64.05
2022-11-23T08:06:20.726Z,63.94
2022-11-23T08:08:48.751Z,64.00
2022-11-23T08:11:18.816Z,63.91
2022-11-23T08:13:46.822Z,63.92
2022-11-23T08:16:14.848Z,63.83
2022-11-23T08:18:42.872Z,63.89
2022-11-23T08:21:10.984Z,63.61
2022-11-23T08:23:39.009Z,63.55
2022-11-23T08:26:12.044Z,63.60
2022-11-23T08:28:43.136Z,63.31
2022-11-23T08:31:12.332Z,63.68
2022-11-23T08:33:40.589Z,63.30
2022-11-23T08:36:09.738Z,63.15
2022-11-23T08:38:37.722Z,63.35
2022-11-23T08:41:06.648Z,63.22
2022-11-23T08:43:35.664Z,63.14
2022-11-23T08:46:10.971Z,62.93
2022-11-23T08:48:39.630Z,62.64
2022-11-23T08:51:08.338Z,63.02
2022-11-23T08:53:37.043Z,62.90
2022-11-23T08:56:07.052Z,62.94
2022-11-23T08:58:35.386Z,62.86
2022-11-23T09:01:09.714Z,62.42
2022-11-23T09:03:38.173Z,62.47
2022-11-23T09:06:06.927Z,62.60
2022-11-23T09:08:35.964Z,62.89
2022-11-23T09:11:06.771Z,62.68
2022-11-23T09:13:37.023Z,62.34
2022-11-23T09:16:08.932Z,62.21
2022-11-23T09:18:37.744Z,62.36
2022-11-23T09:21:07.145Z,62.44
2022-11-23T09:23:38.645Z,62.02
2022-11-23T09:26:07.138Z,62.07
2022-11-23T09:28:38.035Z,61.77
2022-11-23T09:31:14.763Z,61.28
2022-11-23T09:33:43.297Z,61.67
2022-11-23T09:36:11.609Z,61.73
2022-11-23T09:38:56.266Z,61.50
2022-11-23T09:41:49.023Z,61.21
2022-11-23T09:44:25.698Z,61.34
2022-11-23T09:47:09.075Z,61.10
2022-11-23T09:49:46.113Z,60.93
2022-11-23T09:52:18.078Z,61.20
2022-11-23T09:54:47.610Z,61.14
2022-11-23T09:57:20.856Z,60.81
2022-11-23T09:59:53.105Z,60.80
2022-11-23T10:02:25.363Z,60.64
2022-11-23T10:04:54.932Z,60.59
2022-11-23T10:07:48.368Z,60.16
2022-11-23T10:10:33.028Z,59.98
2022-11-23T10:13:13.473Z,59.72
2022-11-23T10:15:52.363Z,59.68
2022-11-23T10:18:31.766Z,59.48
2022-11-23T10:21:13.636Z,59.22
2022-11-23T10:23:52.909Z,59.22
2022-11-23T10:26:25.161Z,59.30
2022-11-23T10:28:55.233Z,59.28
2022-11-23T10:31:26.013Z,59.07
2022-11-23T10:34:04.906Z,58.68
2022-11-23T10:36:36.696Z,58.79
2022-11-23T10:39:17.728Z,58.32
2022-11-23T10:41:46.364Z,58.84
2022-11-23T10:44:27.545Z,58.50
2022-11-23T10:46:56.435Z,58.70
2022-11-23T10:49:28.047Z,58.83
2022-11-23T10:52:02.099Z,58.61
2022-11-23T10:54:33.675Z,58.45
2022-11-23T10:57:04.018Z,58.68
2022-11-23T10:59:37.813Z,58.61
2022-11-23T11:02:18.320Z,58.92
2022-11-23T11:04:50.523Z,59.13
2022-11-23T11:07:24.869Z,59.12
2022-11-23T11:09:55.300Z,58.97
2022-11-23T11:12:23.736Z,59.05
2022-11-23T11:15:11.034Z,58.59
2022-11-23T11:17:42.089Z,59.40
2022-11-23T11:20:38.178Z,59.06
2022-11-23T11:23:18.581Z,58.81
2022-11-23T11:25:49.053Z,59.12
2022-11-23T11:28:25.203Z,59.56
2022-11-23T11:31:00.854Z,59.62
2022-11-23T11:33:36.572Z,59.70
2022-11-23T11:36:09.550Z,60.12
2022-11-23T11:38:39.031Z,60.09
2022-11-23T11:41:10.023Z,59.76
2022-11-23T11:43:43.685Z,59.71
2022-11-23T11:46:28.892Z,60.02
2022-11-23T11:49:05.863Z,59.90
2022-11-23T11:51:39.307Z,60.25
2022-11-23T11:54:17.876Z,60.84
2022-11-23T11:56:48.267Z,61.06
2022-11-23T11:59:22.399Z,61.39
2022-11-23T12:01:57.964Z,61.58
2022-11-23T12:04:34.043Z,60.85
2022-11-23T12:07:09.736Z,60.22
2022-11-23T12:09:42.106Z,60.25
2022-11-23T12:12:16.058Z,59.60
2022-11-23T12:14:45.266Z,59.93
2022-11-23T12:17:34.678Z,58.73
2022-11-23T12:20:09.648Z,58.41
2022-11-23T12:22:50.178Z,58.39
2022-11-23T12:25:25.847Z,58.29
2022-11-23T12:28:05.355Z,57.86
2022-11-23T12:30:43.921Z,57.34
2022-11-23T12:33:35.391Z,55.30
2022-11-23T12:36:23.792Z,53.66
2022-11-23T12:38:56.742Z,53.72
2022-11-23T12:41:27.229Z,54.17
2022-11-23T12:44:35.782Z,53.33
2022-11-23T12:47:14.242Z,51.45
2022-11-23T12:49:52.078Z,52.72
2022-11-23T12:52:34.578Z,51.67
2022-11-23T12:55:20.268Z,49.88
2022-11-23T12:57:56.817Z,48.44
2022-11-23T13:00:28.356Z,48.01
2022-11-23T13:03:39.146Z,48.02
2022-11-23T13:06:35.881Z,44.84
2022-11-23T13:09:24.988Z,44.56
2022-11-23T13:12:24.763Z,43.58
2022-11-23T13:15:04.625Z,43.52
2022-11-23T13:17:44.356Z,42.93
2022-11-23T13:21:06.626Z,43.93
2022-11-23T13:23:37.590Z,43.47
2022-11-23T13:26:17.979Z,42.32
2022-11-23T13:28:48.994Z,43.35
2022-11-23T13:31:27.091Z,42.44
2022-11-23T13:33:57.025Z,41.98
2022-11-23T13:40:04.014Z,42.46
2022-11-23T13:42:34.969Z,41.98
2022-11-23T13:45:26.970Z,42.87
2022-11-23T13:48:41.435Z,43.61
2022-11-23T13:51:06.068Z,45.13
2022-11-23T13:53:36.329Z,46.01
2022-11-23T13:56:27.281Z,46.80
2022-11-23T13:58:57.011Z,47.33
2022-11-23T14:02:01.819Z,47.10
2022-11-23T14:04:40.396Z,46.67
2022-11-23T14:07:18.232Z,44.89
2022-11-23T14:09:57.530Z,44.48
2022-11-23T14:12:41.807Z,44.17
2022-11-23T14:15:21.730Z,45.03
2022-11-23T14:18:23.846Z,44.75
2022-11-23T14:21:16.491Z,44.56
2022-11-23T14:24:29.616Z,44.07
2022-11-23T14:27:46.753Z,44.09
2022-11-23T14:30:58.325Z,44.77
2022-11-23T14:34:00.662Z,45.83
2022-11-23T14:37:05.438Z,46.63
2022-11-23T14:40:23.992Z,47.55
2022-11-23T14:42:57.593Z,48.05
2022-11-23T14:45:53.757Z,48.56
2022-11-23T14:48:23.390Z,48.64
2022-11-23T14:51:01.536Z,49.14
2022-11-23T14:53:32.442Z,48.95
2022-11-23T14:56:00.887Z,49.34
2022-11-23T14:58:33.256Z,49.36
2022-11-23T15:01:03.257Z,49.57
2022-11-23T15:03:50.709Z,49.64
2022-11-23T15:06:25.369Z,49.85
2022-11-23T15:09:04.648Z,50.05
2022-11-23T15:11:35.858Z,50.09
2022-11-23T15:14:04.698Z,49.95
2022-11-23T15:16:42.668Z,49.81
2022-11-23T15:19:28.230Z,49.91
2022-11-23T15:21:58.444Z,49.97
2022-11-23T15:24:28.089Z,49.69
2022-11-23T15:27:09.488Z,49.59
2022-11-23T15:29:41.186Z,49.44
2022-11-23T15:32:33.132Z,48.99
2022-11-23T15:35:06.961Z,49.08
2022-11-23T15:37:48.926Z,48.87
2022-11-23T15:40:19.902Z,48.99
2022-11-23T15:42:50.126Z,49.34
2022-11-23T15:45:39.028Z,48.83
2022-11-23T15:48:14.147Z,48.96
2022-11-23T15:50:49.347Z,49.01
2022-11-23T15:53:19.201Z,49.21
2022-11-23T15:55:47.945Z,49.21
2022-11-23T15:58:18.986Z,49.53
2022-11-23T16:00:53.126Z,49.22
2022-11-23T16:03:35.209Z,48.99
2022-11-23T16:06:29.493Z,48.69
2022-11-23T16:08:59.379Z,49.16
2022-11-23T16:11:33.693Z,49.63
2022-11-23T16:14:16.900Z,49.78
2022-11-23T16:16:46.799Z,49.69
2022-11-23T16:19:26.402Z,50.03
2022-11-23T16:22:02.237Z,50.42
2022-11-23T16:24:35.374Z,50.45
2022-11-23T16:27:13.904Z,50.19
2022-11-23T16:29:42.719Z,50.30
2022-11-23T16:32:23.457Z,51.14
2022-11-23T16:34:55.899Z,50.74
2022-11-23T16:37:26.422Z,50.52
2022-11-23T16:39:56.143Z,50.71
2022-11-23T16:42:25.536Z,50.37
2022-11-23T16:44:53.742Z,50.68
2022-11-23T16:47:26.969Z,50.47
2022-11-23T16:49:55.977Z,50.59
2022-11-23T16:52:24.421Z,50.45
2022-11-23T16:54:53.713Z,50.59
2022-11-23T16:57:30.737Z,50.92
2022-11-23T17:00:00.513Z,51.30
2022-11-23T17:02:28.952Z,51.38
2022-11-23T17:04:57.368Z,51.21
2022-11-23T17:07:35.396Z,50.94
2022-11-23T17:10:06.270Z,51.17
2022-11-23T17:12:40.335Z,50.91
2022-11-23T17:15:18.183Z,50.63
2022-11-23T17:18:19.631Z,50.88
2022-11-23T17:23:47.576Z,50.72
2022-11-23T17:26:45.384Z,50.88
2022-11-23T17:29:26.562Z,50.89
2022-11-23T17:32:04.207Z,50.71
2022-11-23T17:34:38.991Z,50.71
2022-11-23T17:37:21.181Z,50.32
2022-11-23T17:39:52.983Z,50.52
2022-11-23T17:42:26.697Z,50.64
2022-11-23T17:44:56.627Z,50.50
2022-11-23T17:47:28.627Z,50.56
2022-11-23T17:49:57.618Z,50.49
2022-11-23T17:52:26.435Z,50.21
2022-11-23T17:54:54.640Z,50.12
2022-11-23T17:57:25.516Z,50.12
2022-11-23T17:59:54.265Z,50.05
2022-11-23T18:02:23.831Z,50.22
2022-11-23T18:04:52.239Z,50.47
2022-11-23T18:07:20.759Z,50.97
2022-11-23T18:09:49.065Z,51.04
2022-11-23T18:12:17.786Z,51.98
2022-11-23T18:14:46.080Z,51.62
2022-11-23T18:17:15.578Z,51.62
2022-11-23T18:19:45.344Z,52.27
2022-11-23T18:22:13.792Z,52.68
2022-11-23T18:24:42.082Z,52.69
2022-11-23T18:27:10.428Z,53.80
2022-11-23T18:29:40.302Z,53.21
2022-11-23T18:32:09.439Z,53.65
2022-11-23T18:34:37.672Z,53.62
2022-11-23T18:37:07.922Z,54.08
2022-11-23T18:39:36.291Z,53.59
2022-11-23T18:42:06.123Z,53.73
2022-11-23T18:44:35.078Z,53.79
2022-11-23T18:47:03.399Z,54.17
2022-11-23T18:49:32.199Z,54.43
2022-11-23T18:52:00.761Z,54.89
2022-11-23T18:54:30.451Z,55.07
2022-11-23T18:56:58.813Z,55.19
2022-11-23T18:59:57.608Z,55.64
2022-11-23T19:02:15.379Z,55.88
2022-11-23T19:04:43.713Z,56.19
2022-11-23T19:07:12.064Z,56.42
2022-11-23T19:09:41.782Z,56.64
2022-11-23T19:12:10.103Z,57.06
2022-11-23T19:14:38.362Z,57.35
2022-11-23T19:17:06.666Z,57.74
2022-11-23T19:19:35.412Z,57.86
2022-11-23T19:22:04.038Z,58.19
2022-11-23T19:24:32.331Z,58.74
2022-11-23T19:27:02.000Z,58.84
2022-11-23T19:29:30.333Z,60.18
2022-11-23T19:31:58.590Z,60.02
2022-11-23T19:34:26.862Z,60.47
2022-11-23T19:36:55.101Z,60.76
2022-11-23T19:39:23.566Z,60.71
2022-11-23T19:41:51.907Z,60.55
2022-11-23T19:44:21.513Z,61.78
2022-11-23T19:46:49.957Z,61.38
2022-11-23T19:49:18.580Z,61.08
2022-11-23T19:51:51.014Z,61.36
2022-11-23T19:54:19.360Z,60.92
2022-11-23T19:56:47.592Z,62.25
2022-11-23T19:59:15.823Z,62.14
2022-11-23T20:01:45.491Z,62.02
2022-11-23T20:04:13.764Z,62.57
2022-11-23T20:06:44.032Z,62.36
2022-11-23T20:09:16.842Z,62.15
2022-11-23T20:11:50.391Z,61.90
2022-11-23T20:14:20.279Z,61.93
2022-11-23T20:16:50.037Z,61.87
2022-11-23T20:19:18.335Z,62.62
2022-11-23T20:21:46.587Z,62.96
2022-11-23T20:24:16.776Z,62.79
2022-11-23T20:26:45.131Z,62.86
2022-11-23T20:29:14.785Z,63.65
2022-11-23T20:31:43.156Z,63.90
2022-11-23T20:34:18.286Z,64.01
2022-11-23T20:36:48.792Z,63.37
2022-11-23T20:39:17.060Z,63.07
2022-11-23T20:41:45.565Z,63.63
2022-11-23T20:44:15.267Z,63.65
2022-11-23T20:49:34.097Z,63.53
2022-11-23T20:52:03.024Z,62.55
2022-11-23T20:54:31.925Z,62.60
2022-11-23T20:57:00.739Z,62.23
2022-11-23T20:59:29.233Z,62.05
2022-11-23T21:01:57.356Z,62.20
2022-11-23T21:04:25.597Z,61.81
2022-11-23T21:06:55.125Z,62.01
2022-11-23T21:09:23.188Z,62.15
2022-11-23T21:12:08.684Z,61.90
2022-11-23T21:14:37.162Z,61.73
2022-11-23T21:17:05.671Z,62.16
2022-11-23T21:19:35.579Z,62.17
2022-11-23T21:22:07.234Z,61.77
2022-11-23T21:24:36.278Z,62.41
2022-11-23T21:27:05.372Z,62.26
2022-11-23T21:29:33.842Z,62.03
2022-11-23T21:32:02.503Z,61.97
2022-11-23T21:34:31.639Z,62.75
2022-11-23T21:37:00.096Z,62.13
2022-11-23T21:39:31.059Z,61.66
2022-11-23T21:41:59.197Z,62.12
2022-11-23T21:44:27.215Z,61.82
2022-11-23T21:46:55.503Z,61.83
2022-11-23T21:49:23.538Z,62.57
2022-11-23T21:51:51.618Z,62.06
2022-11-23T21:54:19.588Z,62.12
2022-11-23T21:56:49.029Z,62.26
2022-11-23T21:59:17.095Z,62.07
2022-11-23T22:01:45.201Z,62.00
2022-11-23T22:04:15.479Z,61.94
2022-11-23T22:06:45.359Z,62.37
2022-11-23T22:09:14.103Z,62.64
2022-11-23T22:11:44.175Z,62.41
2022-11-23T22:14:15.727Z,62.50
2022-11-23T22:16:45.394Z,62.17
2022-11-23T22:19:15.197Z,62.47
2022-11-23T22:21:44.786Z,62.32
2022-11-23T22:24:14.281Z,62.47
2022-11-23T22:26:42.618Z,62.57
2022-11-23T22:29:11.771Z,62.69
2022-11-23T22:31:41.629Z,62.71
2022-11-23T22:34:13.303Z,62.86
2022-11-23T22:36:41.777Z,62.90
2022-11-23T22:39:10.437Z,62.58
2022-11-23T22:41:39.255Z,62.50
2022-11-23T22:44:10.818Z,62.42
2022-11-23T22:46:41.143Z,62.69
2022-11-23T22:49:09.228Z,62.78
2022-11-23T22:51:37.365Z,62.92
2022-11-23T22:54:05.818Z,62.74
2022-11-23T22:56:34.213Z,62.69
2022-11-23T22:59:02.310Z,62.63
2022-11-23T23:01:31.765Z,62.32
2022-11-23T23:04:02.767Z,62.36
2022-11-23T23:06:34.058Z,62.36
2022-11-23T23:09:02.778Z,62.19
2022-11-23T23:11:32.055Z,62.21
2022-11-23T23:14:00.843Z,62.14
2022-11-23T23:16:30.150Z,62.41
2022-11-23T23:18:59.349Z,62.40
2022-11-23T23:21:29.777Z,61.89
2022-11-23T23:23:59.870Z,62.00
2022-11-23T23:26:28.716Z,62.05
2022-11-23T23:28:57.333Z,62.05
2022-11-23T23:31:25.949Z,61.69
2022-11-23T23:33:54.661Z,62.09
2022-11-23T23:36:24.452Z,61.92
2022-11-23T23:38:54.067Z,61.99
2022-11-23T23:41:22.146Z,61.70
2022-11-23T23:43:50.291Z,62.17
2022-11-23T23:46:18.444Z,62.20
2022-11-23T23:48:46.722Z,62.15
2022-11-23T23:51:16.503Z,62.66
2022-11-23T23:53:45.497Z,62.24
2022-11-23T23:56:17.005Z,62.29
2022-11-23T23:58:45.558Z,62.52
